sensor_id;sensor_type;location;lat;lon;timestamp;P1;durP1;ratioP1;P2;durP2;ratioP2
23782;SDS011;12071;50.850;4.446;2023-03-04T00:01:13;18.25;;;8.75;;
23782;SDS011;12071;50.850;4.446;2023-03-04T00:03:39;18.48;;;8.63;;
23782;SDS011;12071;50.850;4.446;2023-03-04T00:06:05;17.52;;;9.30;;
23782;SDS011;12071;50.850;4.446;2023-03-04T00:08:31;15.88;;;9.18;;
23782;SDS011;12071;50.850;4.446;2023-03-04T00:10:56;20.08;;;8.63;;
23782;SDS011;12071;50.850;4.446;2023-03-04T00:13:22;17.00;;;8.35;;
23782;SDS011;12071;50.850;4.446;2023-03-04T00:15:49;21.83;;;8.85;;
23782;SDS011;12071;50.850;4.446;2023-03-04T00:18:16;18.00;;;8.40;;
23782;SDS011;12071;50.850;4.446;2023-03-04T00:20:42;17.23;;;8.90;;
23782;SDS011;12071;50.850;4.446;2023-03-04T00:23:08;17.17;;;8.02;;
23782;SDS011;12071;50.850;4.446;2023-03-04T00:25:34;17.67;;;8.23;;
23782;SDS011;12071;50.850;4.446;2023-03-04T00:27:59;24.83;;;8.90;;
23782;SDS011;12071;50.850;4.446;2023-03-04T00:30:25;19.27;;;9.25;;
23782;SDS011;12071;50.850;4.446;2023-03-04T00:32:51;23.48;;;10.27;;
23782;SDS011;12071;50.850;4.446;2023-03-04T00:35:16;23.20;;;10.70;;
23782;SDS011;12071;50.850;4.446;2023-03-04T00:37:42;20.27;;;11.05;;
23782;SDS011;12071;50.850;4.446;2023-03-04T00:40:08;26.40;;;11.35;;
23782;SDS011;12071;50.850;4.446;2023-03-04T00:42:35;20.23;;;10.32;;
23782;SDS011;12071;50.850;4.446;2023-03-04T00:45:01;26.80;;;10.27;;
23782;SDS011;12071;50.850;4.446;2023-03-04T00:47:27;19.50;;;10.13;;
23782;SDS011;12071;50.850;4.446;2023-03-04T00:49:52;26.05;;;11.02;;
23782;SDS011;12071;50.850;4.446;2023-03-04T00:52:18;24.20;;;10.82;;
23782;SDS011;12071;50.850;4.446;2023-03-04T00:54:43;18.38;;;9.48;;
23782;SDS011;12071;50.850;4.446;2023-03-04T00:57:09;20.10;;;10.05;;
23782;SDS011;12071;50.850;4.446;2023-03-04T00:59:35;18.45;;;9.80;;
23782;SDS011;12071;50.850;4.446;2023-03-04T01:02:00;22.88;;;9.63;;
23782;SDS011;12071;50.850;4.446;2023-03-04T01:04:26;18.33;;;10.38;;
23782;SDS011;12071;50.850;4.446;2023-03-04T01:06:51;18.05;;;9.95;;
23782;SDS011;12071;50.850;4.446;2023-03-04T01:09:17;22.27;;;9.32;;
23782;SDS011;12071;50.850;4.446;2023-03-04T01:11:42;18.83;;;10.30;;
23782;SDS011;12071;50.850;4.446;2023-03-04T01:14:08;22.65;;;9.80;;
23782;SDS011;12071;50.850;4.446;2023-03-04T01:16:34;30.55;;;9.35;;
23782;SDS011;12071;50.850;4.446;2023-03-04T01:18:59;24.95;;;9.63;;
23782;SDS011;12071;50.850;4.446;2023-03-04T01:21:25;23.73;;;9.52;;
23782;SDS011;12071;50.850;4.446;2023-03-04T01:23:50;25.90;;;8.95;;
23782;SDS011;12071;50.850;4.446;2023-03-04T01:26:16;24.02;;;8.73;;
23782;SDS011;12071;50.850;4.446;2023-03-04T01:28:42;20.00;;;8.50;;
23782;SDS011;12071;50.850;4.446;2023-03-04T01:31:07;20.50;;;7.95;;
23782;SDS011;12071;50.850;4.446;2023-03-04T01:33:33;24.52;;;8.60;;
23782;SDS011;12071;50.850;4.446;2023-03-04T01:35:58;17.70;;;7.70;;
23782;SDS011;12071;50.850;4.446;2023-03-04T01:38:24;17.40;;;8.80;;
23782;SDS011;12071;50.850;4.446;2023-03-04T01:40:50;16.27;;;8.55;;
23782;SDS011;12071;50.850;4.446;2023-03-04T01:43:26;28.33;;;9.25;;
23782;SDS011;12071;50.850;4.446;2023-03-04T01:45:54;22.60;;;8.48;;
23782;SDS011;12071;50.850;4.446;2023-03-04T01:48:24;22.90;;;8.25;;
23782;SDS011;12071;50.850;4.446;2023-03-04T01:51:01;23.13;;;9.05;;
23782;SDS011;12071;50.850;4.446;2023-03-04T01:53:31;23.00;;;8.55;;
23782;SDS011;12071;50.850;4.446;2023-03-04T01:56:01;15.57;;;7.50;;
23782;SDS011;12071;50.850;4.446;2023-03-04T01:58:36;19.90;;;7.72;;
23782;SDS011;12071;50.850;4.446;2023-03-04T02:01:01;24.45;;;8.77;;
23782;SDS011;12071;50.850;4.446;2023-03-04T02:03:27;19.23;;;8.07;;
23782;SDS011;12071;50.850;4.446;2023-03-04T02:05:53;25.02;;;8.07;;
23782;SDS011;12071;50.850;4.446;2023-03-04T02:08:21;23.95;;;8.07;;
23782;SDS011;12071;50.850;4.446;2023-03-04T02:10:48;19.48;;;7.95;;
23782;SDS011;12071;50.850;4.446;2023-03-04T02:13:15;18.08;;;7.90;;
23782;SDS011;12071;50.850;4.446;2023-03-04T02:15:41;18.67;;;7.28;;
23782;SDS011;12071;50.850;4.446;2023-03-04T02:18:16;21.40;;;8.35;;
23782;SDS011;12071;50.850;4.446;2023-03-04T02:20:50;18.85;;;6.90;;
23782;SDS011;12071;50.850;4.446;2023-03-04T02:28:40;26.95;;;7.35;;
23782;SDS011;12071;50.850;4.446;2023-03-04T02:31:09;24.58;;;7.75;;
23782;SDS011;12071;50.850;4.446;2023-03-04T02:33:44;16.90;;;6.22;;
23782;SDS011;12071;50.850;4.446;2023-03-04T02:36:09;19.40;;;6.85;;
23782;SDS011;12071;50.850;4.446;2023-03-04T02:38:35;24.40;;;7.18;;
23782;SDS011;12071;50.850;4.446;2023-03-04T02:41:01;21.45;;;6.63;;
23782;SDS011;12071;50.850;4.446;2023-03-04T02:43:27;20.90;;;6.90;;
23782;SDS011;12071;50.850;4.446;2023-03-04T02:45:52;18.48;;;7.00;;
23782;SDS011;12071;50.850;4.446;2023-03-04T02:48:19;17.77;;;7.28;;
23782;SDS011;12071;50.850;4.446;2023-03-04T02:50:47;19.73;;;6.25;;
23782;SDS011;12071;50.850;4.446;2023-03-04T02:53:15;19.52;;;7.10;;
23782;SDS011;12071;50.850;4.446;2023-03-04T02:55:40;21.30;;;6.85;;
23782;SDS011;12071;50.850;4.446;2023-03-04T02:58:07;21.33;;;7.10;;
23782;SDS011;12071;50.850;4.446;2023-03-04T03:00:33;19.70;;;6.22;;
23782;SDS011;12071;50.850;4.446;2023-03-04T03:02:59;18.13;;;6.50;;
23782;SDS011;12071;50.850;4.446;2023-03-04T03:05:25;20.70;;;6.97;;
23782;SDS011;12071;50.850;4.446;2023-03-04T03:07:53;21.40;;;7.78;;
23782;SDS011;12071;50.850;4.446;2023-03-04T03:10:18;14.32;;;6.22;;
23782;SDS011;12071;50.850;4.446;2023-03-04T03:12:44;19.67;;;6.60;;
23782;SDS011;12071;50.850;4.446;2023-03-04T03:15:10;30.30;;;8.35;;
23782;SDS011;12071;50.850;4.446;2023-03-04T03:17:35;18.50;;;6.60;;
23782;SDS011;12071;50.850;4.446;2023-03-04T03:20:01;23.65;;;7.35;;
23782;SDS011;12071;50.850;4.446;2023-03-04T03:22:27;21.05;;;6.32;;
23782;SDS011;12071;50.850;4.446;2023-03-04T03:24:53;19.15;;;7.15;;
23782;SDS011;12071;50.850;4.446;2023-03-04T03:27:18;21.33;;;6.35;;
23782;SDS011;12071;50.850;4.446;2023-03-04T03:29:45;17.60;;;7.15;;
23782;SDS011;12071;50.850;4.446;2023-03-04T03:32:10;24.45;;;7.07;;
23782;SDS011;12071;50.850;4.446;2023-03-04T03:34:36;21.98;;;6.75;;
23782;SDS011;12071;50.850;4.446;2023-03-04T03:37:02;20.42;;;6.32;;
23782;SDS011;12071;50.850;4.446;2023-03-04T03:39:27;22.92;;;6.82;;
23782;SDS011;12071;50.850;4.446;2023-03-04T03:41:53;22.33;;;7.20;;
23782;SDS011;12071;50.850;4.446;2023-03-04T03:44:18;21.20;;;7.18;;
23782;SDS011;12071;50.850;4.446;2023-03-04T03:46:44;21.83;;;6.93;;
23782;SDS011;12071;50.850;4.446;2023-03-04T03:49:11;24.40;;;7.63;;
23782;SDS011;12071;50.850;4.446;2023-03-04T03:51:36;23.10;;;7.60;;
23782;SDS011;12071;50.850;4.446;2023-03-04T03:54:02;18.70;;;7.35;;
23782;SDS011;12071;50.850;4.446;2023-03-04T03:56:28;20.15;;;8.15;;
23782;SDS011;12071;50.850;4.446;2023-03-04T03:58:53;22.25;;;7.95;;
23782;SDS011;12071;50.850;4.446;2023-03-04T04:01:19;21.77;;;7.75;;
23782;SDS011;12071;50.850;4.446;2023-03-04T04:03:45;22.98;;;8.07;;
23782;SDS011;12071;50.850;4.446;2023-03-04T04:06:10;17.52;;;7.75;;
23782;SDS011;12071;50.850;4.446;2023-03-04T04:08:36;22.73;;;8.05;;
23782;SDS011;12071;50.850;4.446;2023-03-04T04:11:01;21.65;;;8.13;;
23782;SDS011;12071;50.850;4.446;2023-03-04T04:13:27;18.33;;;8.07;;
23782;SDS011;12071;50.850;4.446;2023-03-04T04:15:53;24.85;;;8.93;;
23782;SDS011;12071;50.850;4.446;2023-03-04T04:18:18;25.85;;;9.60;;
23782;SDS011;12071;50.850;4.446;2023-03-04T04:20:45;19.38;;;8.18;;
23782;SDS011;12071;50.850;4.446;2023-03-04T04:23:11;22.85;;;10.02;;
23782;SDS011;12071;50.850;4.446;2023-03-04T04:25:37;20.02;;;8.35;;
23782;SDS011;12071;50.850;4.446;2023-03-04T04:28:02;24.75;;;8.52;;
23782;SDS011;12071;50.850;4.446;2023-03-04T04:30:30;18.50;;;8.07;;
23782;SDS011;12071;50.850;4.446;2023-03-04T04:32:55;23.05;;;9.00;;
23782;SDS011;12071;50.850;4.446;2023-03-04T04:35:21;16.33;;;8.35;;
23782;SDS011;12071;50.850;4.446;2023-03-04T04:37:46;23.35;;;8.48;;
23782;SDS011;12071;50.850;4.446;2023-03-04T04:40:12;26.13;;;9.50;;
23782;SDS011;12071;50.850;4.446;2023-03-04T04:42:37;19.13;;;8.63;;
23782;SDS011;12071;50.850;4.446;2023-03-04T04:45:03;17.20;;;8.68;;
23782;SDS011;12071;50.850;4.446;2023-03-04T04:47:29;22.40;;;8.73;;
23782;SDS011;12071;50.850;4.446;2023-03-04T04:49:55;23.73;;;8.57;;
23782;SDS011;12071;50.850;4.446;2023-03-04T04:52:20;21.73;;;8.68;;
23782;SDS011;12071;50.850;4.446;2023-03-04T04:54:46;25.80;;;9.75;;
23782;SDS011;12071;50.850;4.446;2023-03-04T04:57:11;24.85;;;10.10;;
23782;SDS011;12071;50.850;4.446;2023-03-04T04:59:37;27.67;;;9.88;;
23782;SDS011;12071;50.850;4.446;2023-03-04T05:02:03;24.10;;;9.45;;
23782;SDS011;12071;50.850;4.446;2023-03-04T05:04:28;21.80;;;10.13;;
23782;SDS011;12071;50.850;4.446;2023-03-04T05:06:54;25.55;;;9.70;;
23782;SDS011;12071;50.850;4.446;2023-03-04T05:09:19;19.23;;;10.15;;
23782;SDS011;12071;50.850;4.446;2023-03-04T05:11:47;25.48;;;9.57;;
23782;SDS011;12071;50.850;4.446;2023-03-04T05:14:12;23.25;;;9.90;;
23782;SDS011;12071;50.850;4.446;2023-03-04T05:16:38;25.67;;;9.95;;
23782;SDS011;12071;50.850;4.446;2023-03-04T05:19:04;28.38;;;10.27;;
23782;SDS011;12071;50.850;4.446;2023-03-04T05:21:29;26.65;;;10.15;;
23782;SDS011;12071;50.850;4.446;2023-03-04T05:23:55;24.73;;;10.52;;
23782;SDS011;12071;50.850;4.446;2023-03-04T05:26:20;20.13;;;10.07;;
23782;SDS011;12071;50.850;4.446;2023-03-04T05:28:46;27.85;;;11.05;;
23782;SDS011;12071;50.850;4.446;2023-03-04T05:31:12;25.48;;;11.25;;
23782;SDS011;12071;50.850;4.446;2023-03-04T05:33:37;28.55;;;10.75;;
23782;SDS011;12071;50.850;4.446;2023-03-04T05:36:03;29.45;;;11.23;;
23782;SDS011;12071;50.850;4.446;2023-03-04T05:38:30;23.63;;;10.38;;
23782;SDS011;12071;50.850;4.446;2023-03-04T05:40:57;27.58;;;11.38;;
23782;SDS011;12071;50.850;4.446;2023-03-04T05:43:29;27.10;;;10.10;;
23782;SDS011;12071;50.850;4.446;2023-03-04T05:45:55;24.05;;;11.02;;
23782;SDS011;12071;50.850;4.446;2023-03-04T05:48:21;27.58;;;10.93;;
23782;SDS011;12071;50.850;4.446;2023-03-04T05:50:52;22.33;;;11.13;;
23782;SDS011;12071;50.850;4.446;2023-03-04T05:53:18;19.55;;;7.97;;
23782;SDS011;12071;50.850;4.446;2023-03-04T05:55:47;28.83;;;8.38;;
23782;SDS011;12071;50.850;4.446;2023-03-04T05:58:13;23.10;;;6.07;;
23782;SDS011;12071;50.850;4.446;2023-03-04T06:00:39;16.73;;;5.38;;
23782;SDS011;12071;50.850;4.446;2023-03-04T06:03:05;19.08;;;6.70;;
23782;SDS011;12071;50.850;4.446;2023-03-04T06:05:30;19.23;;;5.25;;
23782;SDS011;12071;50.850;4.446;2023-03-04T06:07:56;15.23;;;4.75;;
23782;SDS011;12071;50.850;4.446;2023-03-04T06:10:22;13.15;;;4.68;;
23782;SDS011;12071;50.850;4.446;2023-03-04T06:12:47;14.60;;;4.43;;
23782;SDS011;12071;50.850;4.446;2023-03-04T06:15:13;17.63;;;4.63;;
23782;SDS011;12071;50.850;4.446;2023-03-04T06:17:39;16.65;;;3.88;;
23782;SDS011;12071;50.850;4.446;2023-03-04T06:20:06;14.13;;;3.60;;
23782;SDS011;12071;50.850;4.446;2023-03-04T06:22:33;11.90;;;3.63;;
23782;SDS011;12071;50.850;4.446;2023-03-04T06:24:59;14.68;;;3.03;;
23782;SDS011;12071;50.850;4.446;2023-03-04T06:27:25;11.77;;;3.20;;
23782;SDS011;12071;50.850;4.446;2023-03-04T06:29:51;15.45;;;3.30;;
23782;SDS011;12071;50.850;4.446;2023-03-04T06:32:17;12.02;;;2.83;;
23782;SDS011;12071;50.850;4.446;2023-03-04T06:34:43;12.75;;;3.05;;
23782;SDS011;12071;50.850;4.446;2023-03-04T06:37:09;16.02;;;3.10;;
23782;SDS011;12071;50.850;4.446;2023-03-04T06:39:34;15.18;;;3.08;;
23782;SDS011;12071;50.850;4.446;2023-03-04T06:42:00;11.98;;;2.70;;
23782;SDS011;12071;50.850;4.446;2023-03-04T06:44:26;9.93;;;3.58;;
23782;SDS011;12071;50.850;4.446;2023-03-04T06:46:51;11.30;;;2.60;;
23782;SDS011;12071;50.850;4.446;2023-03-04T06:49:17;10.10;;;2.80;;
23782;SDS011;12071;50.850;4.446;2023-03-04T06:51:42;15.57;;;2.65;;
23782;SDS011;12071;50.850;4.446;2023-03-04T06:54:08;14.68;;;2.65;;
23782;SDS011;12071;50.850;4.446;2023-03-04T06:56:34;9.32;;;3.05;;
23782;SDS011;12071;50.850;4.446;2023-03-04T06:59:00;18.48;;;2.70;;
23782;SDS011;12071;50.850;4.446;2023-03-04T07:01:27;12.73;;;2.45;;
23782;SDS011;12071;50.850;4.446;2023-03-04T07:03:53;13.68;;;3.17;;
23782;SDS011;12071;50.850;4.446;2023-03-04T07:06:21;11.60;;;3.53;;
23782;SDS011;12071;50.850;4.446;2023-03-04T07:08:49;15.75;;;3.13;;
23782;SDS011;12071;50.850;4.446;2023-03-04T07:11:15;15.27;;;3.38;;
23782;SDS011;12071;50.850;4.446;2023-03-04T07:13:42;6.72;;;2.90;;
23782;SDS011;12071;50.850;4.446;2023-03-04T07:16:12;13.68;;;2.90;;
23782;SDS011;12071;50.850;4.446;2023-03-04T07:18:40;12.50;;;3.13;;
23782;SDS011;12071;50.850;4.446;2023-03-04T07:21:06;17.85;;;3.00;;
23782;SDS011;12071;50.850;4.446;2023-03-04T07:23:31;18.83;;;3.67;;
23782;SDS011;12071;50.850;4.446;2023-03-04T07:25:58;15.57;;;3.10;;
23782;SDS011;12071;50.850;4.446;2023-03-04T07:28:23;11.35;;;3.42;;
23782;SDS011;12071;50.850;4.446;2023-03-04T07:30:49;11.35;;;2.97;;
23782;SDS011;12071;50.850;4.446;2023-03-04T07:33:14;16.33;;;3.50;;
23782;SDS011;12071;50.850;4.446;2023-03-04T07:35:40;13.10;;;3.63;;
23782;SDS011;12071;50.850;4.446;2023-03-04T07:38:06;8.50;;;2.60;;
23782;SDS011;12071;50.850;4.446;2023-03-04T07:40:31;14.02;;;3.33;;
23782;SDS011;12071;50.850;4.446;2023-03-04T07:42:57;19.10;;;4.40;;
23782;SDS011;12071;50.850;4.446;2023-03-04T07:45:23;16.25;;;4.30;;
23782;SDS011;12071;50.850;4.446;2023-03-04T07:47:49;16.00;;;4.03;;
23782;SDS011;12071;50.850;4.446;2023-03-04T07:50:15;14.43;;;4.38;;
23782;SDS011;12071;50.850;4.446;2023-03-04T07:52:42;15.95;;;4.90;;
23782;SDS011;12071;50.850;4.446;2023-03-04T07:55:09;14.57;;;4.07;;
23782;SDS011;12071;50.850;4.446;2023-03-04T07:57:40;15.20;;;4.43;;
23782;SDS011;12071;50.850;4.446;2023-03-04T08:00:07;15.50;;;4.25;;
23782;SDS011;12071;50.850;4.446;2023-03-04T08:02:33;16.80;;;4.25;;
23782;SDS011;12071;50.850;4.446;2023-03-04T08:04:59;14.27;;;4.47;;
23782;SDS011;12071;50.850;4.446;2023-03-04T08:07:24;11.45;;;4.07;;
23782;SDS011;12071;50.850;4.446;2023-03-04T08:09:50;14.40;;;5.10;;
23782;SDS011;12071;50.850;4.446;2023-03-04T08:12:16;14.18;;;4.32;;
23782;SDS011;12071;50.850;4.446;2023-03-04T08:14:41;12.52;;;3.00;;
23782;SDS011;12071;50.850;4.446;2023-03-04T08:17:07;9.70;;;3.88;;
23782;SDS011;12071;50.850;4.446;2023-03-04T08:19:33;17.48;;;4.18;;
23782;SDS011;12071;50.850;4.446;2023-03-04T08:21:59;11.18;;;2.88;;
23782;SDS011;12071;50.850;4.446;2023-03-04T08:24:25;11.48;;;2.45;;
23782;SDS011;12071;50.850;4.446;2023-03-04T08:26:51;11.68;;;2.25;;
23782;SDS011;12071;50.850;4.446;2023-03-04T08:29:18;10.05;;;2.08;;
23782;SDS011;12071;50.850;4.446;2023-03-04T08:31:46;8.70;;;1.85;;
23782;SDS011;12071;50.850;4.446;2023-03-04T08:34:13;9.48;;;2.35;;
23782;SDS011;12071;50.850;4.446;2023-03-04T08:36:39;15.73;;;2.20;;
23782;SDS011;12071;50.850;4.446;2023-03-04T08:39:06;8.32;;;2.15;;
23782;SDS011;12071;50.850;4.446;2023-03-04T08:41:33;7.80;;;1.95;;
23782;SDS011;12071;50.850;4.446;2023-03-04T08:43:59;10.82;;;2.13;;
23782;SDS011;12071;50.850;4.446;2023-03-04T08:46:25;8.68;;;1.67;;
23782;SDS011;12071;50.850;4.446;2023-03-04T08:48:51;6.63;;;1.77;;
23782;SDS011;12071;50.850;4.446;2023-03-04T08:51:16;12.07;;;1.85;;
23782;SDS011;12071;50.850;4.446;2023-03-04T08:53:42;10.25;;;1.77;;
23782;SDS011;12071;50.850;4.446;2023-03-04T08:56:08;5.75;;;1.50;;
23782;SDS011;12071;50.850;4.446;2023-03-04T08:58:35;7.40;;;1.73;;
23782;SDS011;12071;50.850;4.446;2023-03-04T09:01:01;7.93;;;2.30;;
23782;SDS011;12071;50.850;4.446;2023-03-04T09:03:28;9.15;;;1.50;;
23782;SDS011;12071;50.850;4.446;2023-03-04T09:05:53;11.88;;;1.90;;
23782;SDS011;12071;50.850;4.446;2023-03-04T09:08:19;5.75;;;2.13;;
23782;SDS011;12071;50.850;4.446;2023-03-04T09:10:45;13.45;;;3.40;;
23782;SDS011;12071;50.850;4.446;2023-03-04T09:13:11;13.90;;;2.60;;
23782;SDS011;12071;50.850;4.446;2023-03-04T09:15:43;10.68;;;2.47;;
23782;SDS011;12071;50.850;4.446;2023-03-04T09:18:10;11.13;;;2.35;;
23782;SDS011;12071;50.850;4.446;2023-03-04T09:20:35;15.13;;;2.25;;
23782;SDS011;12071;50.850;4.446;2023-03-04T09:23:01;13.18;;;2.50;;
23782;SDS011;12071;50.850;4.446;2023-03-04T09:25:27;10.73;;;2.30;;
23782;SDS011;12071;50.850;4.446;2023-03-04T09:27:53;12.43;;;3.45;;
23782;SDS011;12071;50.850;4.446;2023-03-04T09:30:18;13.30;;;2.50;;
23782;SDS011;12071;50.850;4.446;2023-03-04T09:32:44;8.63;;;3.00;;
23782;SDS011;12071;50.850;4.446;2023-03-04T09:35:10;16.77;;;2.90;;
23782;SDS011;12071;50.850;4.446;2023-03-04T09:37:35;14.85;;;3.33;;
23782;SDS011;12071;50.850;4.446;2023-03-04T09:40:02;13.68;;;3.08;;
23782;SDS011;12071;50.850;4.446;2023-03-04T09:42:32;9.93;;;3.50;;
23782;SDS011;12071;50.850;4.446;2023-03-04T09:45:01;14.00;;;3.47;;
23782;SDS011;12071;50.850;4.446;2023-03-04T09:47:29;9.60;;;2.85;;
23782;SDS011;12071;50.850;4.446;2023-03-04T09:50:00;12.43;;;3.53;;
23782;SDS011;12071;50.850;4.446;2023-03-04T10:00:59;12.60;;;3.90;;
23782;SDS011;12071;50.850;4.446;2023-03-04T10:06:16;13.35;;;4.35;;
23782;SDS011;12071;50.850;4.446;2023-03-04T10:08:50;12.50;;;4.30;;
23782;SDS011;12071;50.850;4.446;2023-03-04T10:11:27;15.48;;;5.75;;
23782;SDS011;12071;50.850;4.446;2023-03-04T10:16:44;20.50;;;5.70;;
23782;SDS011;12071;50.850;4.446;2023-03-04T10:19:26;16.00;;;5.10;;
23782;SDS011;12071;50.850;4.446;2023-03-04T10:21:55;17.15;;;5.72;;
23782;SDS011;12071;50.850;4.446;2023-03-04T10:24:23;16.15;;;6.57;;
23782;SDS011;12071;50.850;4.446;2023-03-04T10:26:53;17.23;;;6.25;;
23782;SDS011;12071;50.850;4.446;2023-03-04T10:29:25;13.70;;;6.18;;
23782;SDS011;12071;50.850;4.446;2023-03-04T10:31:54;12.52;;;5.78;;
23782;SDS011;12071;50.850;4.446;2023-03-04T10:34:20;15.45;;;6.15;;
23782;SDS011;12071;50.850;4.446;2023-03-04T10:36:59;14.40;;;6.32;;
23782;SDS011;12071;50.850;4.446;2023-03-04T10:39:27;13.70;;;6.15;;
23782;SDS011;12071;50.850;4.446;2023-03-04T10:42:02;15.90;;;6.00;;
23782;SDS011;12071;50.850;4.446;2023-03-04T10:44:30;18.65;;;5.63;;
23782;SDS011;12071;50.850;4.446;2023-03-04T10:46:58;9.82;;;6.03;;
23782;SDS011;12071;50.850;4.446;2023-03-04T10:49:25;17.83;;;6.60;;
23782;SDS011;12071;50.850;4.446;2023-03-04T10:57:13;14.20;;;5.75;;
23782;SDS011;12071;50.850;4.446;2023-03-04T10:59:41;16.90;;;5.57;;
23782;SDS011;12071;50.850;4.446;2023-03-04T11:02:14;12.63;;;5.50;;
23782;SDS011;12071;50.850;4.446;2023-03-04T11:04:56;15.65;;;5.72;;
23782;SDS011;12071;50.850;4.446;2023-03-04T11:10:16;10.30;;;4.95;;
23782;SDS011;12071;50.850;4.446;2023-03-04T11:12:51;9.02;;;4.40;;
23782;SDS011;12071;50.850;4.446;2023-03-04T11:15:25;15.10;;;4.95;;
23782;SDS011;12071;50.850;4.446;2023-03-04T11:17:53;13.73;;;4.70;;
23782;SDS011;12071;50.850;4.446;2023-03-04T11:23:04;9.57;;;4.45;;
23782;SDS011;12071;50.850;4.446;2023-03-04T11:25:35;9.13;;;4.10;;
23782;SDS011;12071;50.850;4.446;2023-03-04T11:28:20;7.63;;;4.40;;
23782;SDS011;12071;50.850;4.446;2023-03-04T11:31:00;9.95;;;4.22;;
23782;SDS011;12071;50.850;4.446;2023-03-04T11:33:35;15.23;;;4.55;;
23782;SDS011;12071;50.850;4.446;2023-03-04T11:36:24;11.60;;;4.57;;
23782;SDS011;12071;50.850;4.446;2023-03-04T11:39:00;13.55;;;4.75;;
23782;SDS011;12071;50.850;4.446;2023-03-04T11:43:59;11.13;;;4.53;;
23782;SDS011;12071;50.850;4.446;2023-03-04T11:49:37;7.47;;;3.60;;
23782;SDS011;12071;50.850;4.446;2023-03-04T12:06:20;10.05;;;3.97;;
23782;SDS011;12071;50.850;4.446;2023-03-04T12:09:02;8.90;;;3.03;;
23782;SDS011;12071;50.850;4.446;2023-03-04T12:28:00;7.10;;;3.90;;
23782;SDS011;12071;50.850;4.446;2023-03-04T12:31:02;8.13;;;4.13;;
23782;SDS011;12071;50.850;4.446;2023-03-04T12:37:04;16.95;;;4.93;;
23782;SDS011;12071;50.850;4.446;2023-03-04T12:39:24;9.20;;;4.70;;
23782;SDS011;12071;50.850;4.446;2023-03-04T12:42:17;11.80;;;4.60;;
23782;SDS011;12071;50.850;4.446;2023-03-04T12:45:02;14.32;;;4.85;;
23782;SDS011;12071;50.850;4.446;2023-03-04T12:53:36;9.68;;;3.85;;
23782;SDS011;12071;50.850;4.446;2023-03-04T12:56:08;10.35;;;4.30;;
23782;SDS011;12071;50.850;4.446;2023-03-04T12:58:47;5.82;;;3.22;;
23782;SDS011;12071;50.850;4.446;2023-03-04T13:01:19;7.15;;;3.50;;
23782;SDS011;12071;50.850;4.446;2023-03-04T13:06:27;11.00;;;3.40;;
23782;SDS011;12071;50.850;4.446;2023-03-04T13:09:21;5.70;;;2.90;;
23782;SDS011;12071;50.850;4.446;2023-03-04T13:17:37;7.38;;;2.92;;
23782;SDS011;12071;50.850;4.446;2023-03-04T13:20:17;8.20;;;3.17;;
23782;SDS011;12071;50.850;4.446;2023-03-04T13:22:50;7.18;;;2.88;;
23782;SDS011;12071;50.850;4.446;2023-03-04T13:40:44;11.55;;;3.35;;
23782;SDS011;12071;50.850;4.446;2023-03-04T13:43:42;9.77;;;2.80;;
23782;SDS011;12071;50.850;4.446;2023-03-04T14:03:58;4.88;;;2.35;;
23782;SDS011;12071;50.850;4.446;2023-03-04T14:06:26;6.75;;;2.58;;
23782;SDS011;12071;50.850;4.446;2023-03-04T14:08:54;4.70;;;2.08;;
23782;SDS011;12071;50.850;4.446;2023-03-04T14:11:25;4.28;;;2.47;;
23782;SDS011;12071;50.850;4.446;2023-03-04T14:13:55;5.38;;;2.38;;
23782;SDS011;12071;50.850;4.446;2023-03-04T14:16:25;3.92;;;1.92;;
23782;SDS011;12071;50.850;4.446;2023-03-04T14:19:36;7.40;;;2.17;;
23782;SDS011;12071;50.850;4.446;2023-03-04T14:21:50;5.75;;;2.13;;
23782;SDS011;12071;50.850;4.446;2023-03-04T14:24:17;5.65;;;2.25;;
23782;SDS011;12071;50.850;4.446;2023-03-04T14:26:44;4.57;;;2.13;;
23782;SDS011;12071;50.850;4.446;2023-03-04T14:29:44;3.35;;;1.90;;
23782;SDS011;12071;50.850;4.446;2023-03-04T14:32:03;4.40;;;2.28;;
23782;SDS011;12071;50.850;4.446;2023-03-04T14:34:34;5.72;;;2.35;;
23782;SDS011;12071;50.850;4.446;2023-03-04T14:37:02;5.95;;;1.98;;
23782;SDS011;12071;50.850;4.446;2023-03-04T14:39:30;4.25;;;1.90;;
23782;SDS011;12071;50.850;4.446;2023-03-04T14:42:05;6.13;;;2.30;;
23782;SDS011;12071;50.850;4.446;2023-03-04T14:44:36;7.65;;;2.28;;
23782;SDS011;12071;50.850;4.446;2023-03-04T14:47:15;5.97;;;2.17;;
23782;SDS011;12071;50.850;4.446;2023-03-04T14:49:42;5.25;;;2.00;;
23782;SDS011;12071;50.850;4.446;2023-03-04T14:54:58;6.57;;;2.53;;
23782;SDS011;12071;50.850;4.446;2023-03-04T14:57:27;6.40;;;2.00;;
23782;SDS011;12071;50.850;4.446;2023-03-04T15:00:12;6.90;;;2.45;;
23782;SDS011;12071;50.850;4.446;2023-03-04T15:03:05;4.53;;;2.20;;
23782;SDS011;12071;50.850;4.446;2023-03-04T15:05:43;5.10;;;2.13;;
23782;SDS011;12071;50.850;4.446;2023-03-04T15:08:42;2.60;;;1.80;;
23782;SDS011;12071;50.850;4.446;2023-03-04T15:11:04;2.30;;;1.80;;
23782;SDS011;12071;50.850;4.446;2023-03-04T15:16:14;4.28;;;2.20;;
23782;SDS011;12071;50.850;4.446;2023-03-04T15:21:27;5.50;;;2.05;;
23782;SDS011;12071;50.850;4.446;2023-03-04T15:24:09;2.40;;;1.33;;
23782;SDS011;12071;50.850;4.446;2023-03-04T15:26:39;3.67;;;1.63;;
23782;SDS011;12071;50.850;4.446;2023-03-04T15:29:16;6.85;;;2.25;;
23782;SDS011;12071;50.850;4.446;2023-03-04T15:31:43;7.65;;;1.60;;
23782;SDS011;12071;50.850;4.446;2023-03-04T15:34:13;2.90;;;1.55;;
23782;SDS011;12071;50.850;4.446;2023-03-04T15:36:40;8.52;;;1.52;;
23782;SDS011;12071;50.850;4.446;2023-03-04T15:39:09;5.88;;;1.60;;
23782;SDS011;12071;50.850;4.446;2023-03-04T15:41:37;4.05;;;1.45;;
23782;SDS011;12071;50.850;4.446;2023-03-04T15:44:03;3.08;;;1.20;;
23782;SDS011;12071;50.850;4.446;2023-03-04T15:46:28;1.92;;;1.13;;
23782;SDS011;12071;50.850;4.446;2023-03-04T15:48:54;6.45;;;1.80;;
23782;SDS011;12071;50.850;4.446;2023-03-04T15:51:20;4.90;;;1.50;;
23782;SDS011;12071;50.850;4.446;2023-03-04T15:53:50;7.22;;;1.70;;
23782;SDS011;12071;50.850;4.446;2023-03-04T15:56:24;4.50;;;1.65;;
23782;SDS011;12071;50.850;4.446;2023-03-04T15:59:25;3.65;;;1.60;;
23782;SDS011;12071;50.850;4.446;2023-03-04T16:01:44;2.92;;;1.50;;
23782;SDS011;12071;50.850;4.446;2023-03-04T16:04:11;4.20;;;1.90;;
23782;SDS011;12071;50.850;4.446;2023-03-04T16:06:40;8.05;;;1.88;;
23782;SDS011;12071;50.850;4.446;2023-03-04T16:09:11;6.55;;;2.22;;
23782;SDS011;12071;50.850;4.446;2023-03-04T16:11:41;5.45;;;1.75;;
23782;SDS011;12071;50.850;4.446;2023-03-04T16:14:12;5.85;;;1.98;;
23782;SDS011;12071;50.850;4.446;2023-03-04T16:16:39;6.70;;;2.15;;
23782;SDS011;12071;50.850;4.446;2023-03-04T16:19:07;8.00;;;1.77;;
23782;SDS011;12071;50.850;4.446;2023-03-04T16:21:33;6.93;;;2.30;;
23782;SDS011;12071;50.850;4.446;2023-03-04T16:23:58;4.53;;;1.95;;
23782;SDS011;12071;50.850;4.446;2023-03-04T16:26:24;7.80;;;1.80;;
23782;SDS011;12071;50.850;4.446;2023-03-04T16:28:52;5.03;;;1.77;;
23782;SDS011;12071;50.850;4.446;2023-03-04T16:31:18;6.60;;;1.85;;
23782;SDS011;12071;50.850;4.446;2023-03-04T16:33:45;4.80;;;1.52;;
23782;SDS011;12071;50.850;4.446;2023-03-04T16:36:12;4.72;;;1.50;;
23782;SDS011;12071;50.850;4.446;2023-03-04T16:38:39;4.50;;;1.35;;
23782;SDS011;12071;50.850;4.446;2023-03-04T16:41:08;3.35;;;1.65;;
23782;SDS011;12071;50.850;4.446;2023-03-04T16:43:37;5.05;;;2.30;;
23782;SDS011;12071;50.850;4.446;2023-03-04T16:46:03;5.68;;;1.30;;
23782;SDS011;12071;50.850;4.446;2023-03-04T16:48:29;3.92;;;1.48;;
23782;SDS011;12071;50.850;4.446;2023-03-04T16:50:55;5.25;;;1.85;;